createdAt,value
2017-07-17T00:00:03.297Z,20.20
2017-07-17T00:05:05.097Z,22.13
2017-07-17T00:10:06.861Z,23.80
2017-07-17T00:15:08.606Z,28.10
2017-07-17T00:20:10.363Z,30.27
2017-07-17T00:25:12.132Z,23.33
2017-07-17T00:30:13.879Z,26.47
2017-07-17T00:35:16.420Z,15.93
2017-07-17T00:40:18.148Z,26.40
2017-07-17T00:45:19.890Z,28.00
2017-07-17T00:50:21.656Z,29.60
2017-07-17T00:55:24.150Z,27.47
2017-07-17T01:00:25.859Z,24.20
2017-07-17T01:05:27.605Z,23.53
2017-07-17T01:10:29.341Z,32.13
2017-07-17T01:15:31.075Z,20.53
2017-07-17T01:20:35.315Z,26.80
2017-07-17T01:25:37.100Z,46.77
2017-07-17T01:30:39.377Z,38.93
2017-07-17T01:35:41.785Z,29.87
2017-07-17T01:40:44.078Z,19.97
2017-07-17T01:45:46.165Z,36.50
2017-07-17T01:50:48.704Z,36.03
2017-07-17T01:55:50.967Z,36.03
2017-07-17T02:00:53.945Z,35.13
2017-07-17T02:05:56.448Z,37.73
2017-07-17T02:10:58.192Z,28.17
2017-07-17T02:15:59.933Z,24.63
2017-07-17T02:21:02.001Z,28.87
2017-07-17T02:26:03.746Z,22.57
2017-07-17T02:31:05.520Z,25.87
2017-07-17T02:36:08.100Z,26.50
2017-07-17T02:41:09.866Z,22.63
2017-07-17T02:46:11.621Z,42.20
2017-07-17T02:51:13.395Z,33.97
2017-07-17T02:56:15.140Z,26.53
2017-07-17T03:01:16.859Z,27.73
2017-07-17T03:06:19.191Z,27.10
2017-07-17T03:11:20.946Z,35.93
2017-07-17T03:16:22.818Z,34.10
2017-07-17T03:21:24.569Z,20.43
2017-07-17T03:26:27.048Z,31.73
2017-07-17T03:31:28.801Z,33.00
2017-07-17T03:36:30.604Z,33.10
2017-07-17T03:41:32.362Z,28.77
2017-07-17T03:46:34.126Z,34.23
2017-07-17T03:51:36.640Z,38.70
2017-07-17T03:56:38.378Z,25.17
2017-07-17T04:01:40.152Z,27.53
2017-07-17T04:06:41.899Z,22.73
2017-07-17T04:11:43.622Z,32.30
2017-07-17T04:16:46.107Z,32.27
2017-07-17T04:21:47.850Z,45.93
2017-07-17T04:26:49.589Z,22.93
2017-07-17T04:31:52.077Z,23.93
2017-07-17T04:36:53.807Z,26.13
2017-07-17T04:41:55.540Z,25.80
2017-07-17T04:46:57.279Z,13.00
2017-07-17T04:51:59.767Z,23.90
2017-07-17T04:57:01.880Z,17.27
2017-07-17T05:02:03.638Z,15.37
2017-07-17T05:07:06.117Z,17.60
2017-07-17T05:12:07.856Z,19.30
2017-07-17T05:17:09.570Z,18.60
2017-07-17T05:22:11.288Z,23.17
2017-07-17T05:27:13.053Z,21.90
2017-07-17T05:32:14.881Z,15.63
2017-07-17T05:37:16.708Z,9.70
2017-07-17T05:42:18.470Z,16.47
2017-07-17T05:47:20.201Z,16.27
2017-07-17T05:52:22.023Z,15.43
2017-07-17T05:57:23.762Z,17.80
2017-07-17T06:02:25.490Z,19.60
2017-07-17T06:07:27.275Z,24.03
2017-07-17T06:12:29.008Z,17.23
2017-07-17T06:17:30.708Z,8.53
2017-07-17T06:22:32.440Z,20.50
2017-07-17T06:27:34.198Z,20.83
2017-07-17T06:32:35.963Z,8.50
2017-07-17T06:37:37.679Z,14.53
2017-07-17T06:42:40.801Z,16.20
2017-07-17T06:47:42.933Z,9.17
2017-07-17T06:52:47.622Z,6.00
2017-07-17T06:57:51.723Z,5.33
2017-07-17T07:02:53.458Z,5.70
2017-07-17T07:07:57.348Z,4.30
2017-07-17T07:12:59.824Z,11.90
2017-07-17T07:18:01.691Z,5.10
2017-07-17T07:23:03.483Z,7.77
2017-07-17T07:28:05.298Z,5.93
2017-07-17T07:33:07.079Z,10.57
2017-07-17T07:38:08.814Z,5.23
2017-07-17T07:43:10.592Z,8.90
2017-07-17T07:48:12.334Z,5.10
2017-07-17T07:53:14.147Z,5.50
2017-07-17T07:58:15.915Z,4.87
2017-07-17T08:03:17.681Z,2.90
2017-07-17T08:08:19.685Z,3.00
2017-07-17T08:13:21.554Z,5.40
2017-07-17T08:18:23.377Z,13.40
2017-07-17T08:23:25.874Z,5.87
2017-07-17T08:28:27.668Z,5.70
2017-07-17T08:33:29.496Z,2.33
2017-07-17T08:38:31.287Z,2.70
2017-07-17T08:43:33.086Z,2.00
2017-07-17T08:48:34.828Z,6.40
2017-07-17T08:53:36.590Z,7.27
2017-07-17T08:58:38.328Z,2.37
2017-07-17T09:03:40.072Z,4.07
2017-07-17T09:08:41.842Z,9.53
2017-07-17T09:13:43.672Z,3.20
2017-07-17T09:18:45.529Z,2.20
2017-07-17T09:23:48.070Z,5.13
2017-07-17T09:28:49.871Z,3.23
2017-07-17T09:33:51.735Z,4.50
2017-07-17T09:38:53.569Z,3.20
2017-07-17T09:43:55.366Z,3.73
2017-07-17T09:48:57.881Z,3.00
2017-07-17T09:53:59.649Z,3.50
2017-07-17T09:59:01.531Z,3.60
2017-07-17T10:04:03.350Z,4.83
2017-07-17T10:09:11.291Z,3.43
2017-07-17T10:14:13.015Z,2.03
2017-07-17T10:19:14.782Z,6.40
2017-07-17T10:24:18.304Z,7.23
2017-07-17T10:29:20.047Z,1.33
2017-07-17T10:34:21.873Z,1.90
2017-07-17T10:39:23.958Z,8.67
2017-07-17T10:44:26.280Z,1.97
2017-07-17T10:49:28.060Z,4.00
2017-07-17T10:54:29.795Z,2.73
2017-07-17T10:59:31.557Z,2.83
2017-07-17T11:04:33.327Z,3.83
2017-07-17T11:09:35.832Z,3.57
2017-07-17T11:14:37.679Z,8.63
2017-07-17T11:19:40.232Z,3.47
2017-07-17T11:24:42.009Z,5.27
2017-07-17T11:29:43.811Z,4.63
2017-07-17T11:34:46.183Z,2.63
2017-07-17T11:39:48.025Z,4.47
2017-07-17T11:44:49.750Z,1.93
2017-07-17T12:00:05.948Z,2.30
2017-07-17T12:10:08.746Z,2.90
2017-07-17T12:15:11.227Z,7.80
2017-07-17T12:20:12.985Z,5.50
2017-07-17T12:25:14.728Z,2.33
2017-07-17T12:30:16.488Z,2.97
2017-07-17T12:35:18.292Z,8.43
2017-07-17T12:40:20.052Z,6.10
2017-07-17T12:45:21.889Z,6.47
2017-07-17T12:50:23.749Z,3.47
2017-07-17T12:55:25.473Z,6.40
2017-07-17T13:00:27.262Z,5.27
2017-07-17T13:05:28.998Z,3.20
2017-07-17T13:10:30.775Z,3.50
2017-07-17T13:15:33.283Z,4.53
2017-07-17T13:20:35.079Z,1.87
2017-07-17T13:25:36.855Z,7.67
2017-07-17T13:30:38.632Z,6.80
2017-07-17T13:35:40.437Z,4.97
2017-07-17T13:40:42.234Z,1.10
2017-07-17T13:45:43.974Z,5.83
2017-07-17T13:50:46.687Z,2.83
2017-07-17T13:55:48.494Z,4.90
2017-07-17T14:00:50.255Z,6.53
2017-07-17T14:05:51.987Z,21.83
2017-07-17T14:10:53.733Z,33.83
2017-07-17T14:15:55.483Z,9.80
2017-07-17T14:20:57.982Z,3.17
2017-07-17T14:25:59.759Z,11.70
2017-07-17T14:31:01.493Z,5.13
2017-07-17T14:36:03.304Z,2.63
2017-07-17T14:41:05.041Z,8.73
2017-07-17T14:46:06.808Z,13.40
2017-07-17T14:51:09.243Z,5.13
2017-07-17T14:56:11.032Z,5.30
2017-07-17T15:01:12.796Z,4.07
2017-07-17T15:06:14.533Z,5.50
2017-07-17T15:11:16.255Z,8.40
2017-07-17T15:16:18.011Z,4.07
2017-07-17T15:21:19.756Z,9.40
2017-07-17T15:26:21.492Z,2.97
2017-07-17T15:31:23.253Z,1.87
2017-07-17T15:36:24.982Z,3.57
2017-07-17T15:41:26.723Z,7.53
2017-07-17T15:46:28.495Z,2.43
2017-07-17T15:51:30.239Z,1.50
2017-07-17T15:56:31.962Z,5.77
2017-07-17T16:01:33.670Z,2.20
2017-07-17T16:06:36.123Z,3.73
2017-07-17T16:11:38.622Z,4.37
2017-07-17T16:16:40.408Z,3.50
2017-07-17T16:21:42.138Z,7.10
2017-07-17T16:26:44.003Z,3.47
2017-07-17T16:31:46.510Z,15.30
2017-07-17T16:36:48.249Z,6.90
2017-07-17T16:41:49.989Z,2.90
2017-07-17T16:46:51.927Z,5.20
2017-07-17T16:51:53.682Z,1.60
2017-07-17T16:56:55.414Z,3.33
2017-07-17T17:01:57.181Z,4.93
2017-07-17T17:06:58.901Z,7.03
2017-07-17T17:12:00.661Z,2.30
2017-07-17T17:17:04.121Z,8.40
2017-07-17T17:22:05.915Z,12.80
2017-07-17T17:27:07.714Z,3.07
2017-07-17T17:32:09.512Z,4.50
2017-07-17T17:37:12.406Z,3.33
2017-07-17T17:42:14.253Z,3.17
2017-07-17T17:47:16.068Z,3.27
2017-07-17T17:52:17.840Z,4.27
2017-07-17T17:57:19.605Z,5.27
2017-07-17T18:02:21.448Z,2.37
2017-07-17T18:07:23.399Z,6.67
2017-07-17T18:12:25.312Z,10.83
2017-07-17T18:17:27.897Z,5.50
2017-07-17T18:22:33.015Z,7.30
2017-07-17T18:27:34.926Z,5.53
2017-07-17T18:32:37.721Z,3.40
2017-07-17T18:37:40.635Z,3.67
2017-07-17T18:42:42.415Z,3.90
2017-07-17T18:47:44.211Z,5.67
2017-07-17T18:52:46.067Z,6.43
2017-07-17T18:57:47.922Z,4.37
2017-07-17T19:02:49.771Z,3.33
2017-07-17T19:07:52.791Z,8.10
2017-07-17T19:12:54.826Z,3.50
2017-07-17T19:17:57.731Z,5.20
2017-07-17T19:23:00.064Z,2.53
2017-07-17T19:28:01.891Z,4.20
2017-07-17T19:33:04.485Z,5.00
2017-07-17T19:38:06.249Z,2.90
2017-07-17T19:43:08.603Z,4.63
2017-07-17T19:48:10.739Z,6.73
2017-07-17T19:53:12.466Z,4.07
2017-07-17T19:58:14.280Z,7.60
2017-07-17T20:03:19.210Z,3.33
2017-07-17T20:08:24.432Z,4.70
2017-07-17T20:13:26.275Z,3.80
2017-07-17T20:18:28.830Z,3.93
2017-07-17T20:23:31.387Z,5.50
2017-07-17T20:28:33.231Z,3.17
2017-07-17T20:33:37.067Z,4.17
2017-07-17T20:38:38.811Z,5.33
2017-07-17T20:43:40.619Z,4.73
2017-07-17T20:48:43.127Z,8.23
2017-07-17T20:53:44.895Z,7.43
2017-07-17T20:58:46.663Z,5.80
2017-07-17T21:03:48.407Z,4.00
2017-07-17T21:08:50.927Z,4.37
2017-07-17T21:13:52.694Z,5.90
2017-07-17T21:18:55.315Z,14.10
2017-07-17T21:23:57.042Z,3.33
2017-07-17T21:28:58.825Z,7.33
2017-07-17T21:34:00.640Z,5.53
2017-07-17T21:39:02.429Z,7.67
2017-07-17T21:44:04.196Z,6.73
2017-07-17T21:49:06.013Z,11.10
2017-07-17T21:54:07.810Z,6.33
2017-07-17T21:59:09.551Z,5.60
2017-07-17T22:04:11.293Z,16.03
2017-07-17T22:09:13.059Z,6.30
2017-07-17T22:14:14.784Z,8.37
2017-07-17T22:19:16.543Z,4.97
2017-07-17T22:24:18.302Z,5.53
2017-07-17T22:29:20.030Z,11.10
2017-07-17T22:34:21.839Z,6.10
2017-07-17T22:39:23.634Z,6.23
2017-07-17T22:44:25.374Z,6.93
2017-07-17T22:49:27.130Z,7.57
2017-07-17T22:54:28.866Z,11.80
2017-07-17T22:59:30.606Z,8.00
2017-07-17T23:04:32.383Z,10.17
2017-07-17T23:09:35.143Z,23.20
2017-07-17T23:14:37.883Z,6.43
2017-07-17T23:19:39.607Z,5.50
2017-07-17T23:24:41.356Z,9.50
2017-07-17T23:29:43.120Z,10.87
2017-07-17T23:34:44.883Z,6.47
2017-07-17T23:39:47.372Z,10.17
2017-07-17T23:44:49.111Z,6.33
2017-07-17T23:49:50.875Z,15.20
2017-07-17T23:54:52.591Z,8.07
2017-07-17T23:59:54.298Z,6.00
